MSC Divina — 3FFA5 — position and weather

sailwx.info

Track history (hours):
 
Tides and Currents Weather Stations Pressure Air Temp Water Temp Dewpoint Dewpoint Depression Visibility Wind Speed Wind Dir Waves Ship Positions

MSC Divina

Last reported at 2016-May-29 00:17 UTC. Time now 2016-May-30 18:22 UTC.
Position N 25°39' W 080°00'.

Length 333 m; draft 8.6 m.

Type: Passenger vessel. MMSI: 373178000.

Date/timePositionNaut miles runAvg speedWind from/ knotsBaromVisibWave heightAir tempDewpointWater temp
2016-May-29 00:17N 25°39' W 080°00'913.1
2016-May-28 23:34N 25°46' W 080°08'3 2.5
2016-May-28 22:27N 25°47' W 080°10'0 0.0
2016-May-28 21:33N 25°47' W 080°10'0 0.0
2016-May-28 20:23N 25°47' W 080°10'0 0.0
2016-May-28 19:23N 25°47' W 080°10'0 0.0
2016-May-28 18:28N 25°47' W 080°10'0 0.0
2016-May-28 17:31N 25°47' W 080°10'0 0.0
2016-May-28 16:23N 25°47' W 080°10'0 0.0
2016-May-28 15:23N 25°47' W 080°10'0 0.0
2016-May-28 14:31N 25°47' W 080°10'0 0.0
2016-May-28 13:30N 25°47' W 080°10'0 0.0
2016-May-28 12:26N 25°47' W 080°10'0 0.0
2016-May-28 11:26N 25°47' W 080°10'0 0.0
2016-May-28 10:22N 25°47' W 080°10'0 0.5
2016-May-28 09:32N 25°47' W 080°11'7 7.2
2016-May-28 08:33N 25°46' W 080°03'1515.3
2016-May-28 07:33N 25°54' W 079°49'1716.6
2016-May-28 06:33N 26°03' W 079°33'1717.0
2016-May-28 05:34N 26°12' W 079°17'86118.3
2016-May-26 06:29N 18°32' W 066°10'5 5.1
2016-May-26 05:29N 18°28' W 066°07'0 0.0
2016-May-26 04:33N 18°28' W 066°07'0 0.0
2016-May-26 03:31N 18°28' W 066°07'0 0.0
2016-May-26 02:32N 18°28' W 066°07'0 0.0
2016-May-26 01:26N 18°28' W 066°07'0 0.0
2016-May-26 00:26N 18°28' W 066°07'0 0.0
2016-May-25 23:14N 18°28' W 066°07'0 0.0
2016-May-25 21:08N 18°28' W 066°07'0 0.0
2016-May-25 20:23N 18°28' W 066°07'0 0.0
2016-May-25 19:32N 18°28' W 066°07'0 0.0
2016-May-25 18:10N 18°28' W 066°07'0 0.0
2016-May-25 17:25N 18°28' W 066°07'0 0.0
2016-May-25 16:25N 18°28' W 066°07'0 0.0
2016-May-25 15:28N 18°28' W 066°07'0 0.0
2016-May-25 14:28N 18°28' W 066°07'0 0.0
2016-May-25 13:30N 18°28' W 066°07'0 0.0
2016-May-25 12:34N 18°28' W 066°07'7 6.8
2016-May-25 11:34N 18°34' W 066°03'6516.0
2016-May-25 07:29N 18°12' W 064°58'8817.7
2016-May-25 02:31N 18°02' W 063°26'1718.0
2016-May-25 01:33N 18°01' W 063°08'5 4.3
2016-May-25 00:24N 18°01' W 063°03'0 0.0
2016-May-24 23:21N 18°01' W 063°03'0 0.0
2016-May-24 21:22N 18°01' W 063°03'0 0.0
2016-May-24 19:33N 18°01' W 063°03'0 0.0
2016-May-24 18:23N 18°01' W 063°03'0 0.0
2016-May-24 17:23N 18°01' W 063°03'2 2.1
2016-May-24 16:28N 18°00' W 063°05'1717.2
2016-May-24 15:30N 18°08' W 063°21'  
2016-May-22 05:27N 26°02' W 078°26'1617.7
2016-May-22 04:33N 26°06' W 078°43'1818.2
2016-May-22 03:33N 26°12' W 079°02'1818.3
2016-May-22 02:33N 26°17' W 079°22'1817.5
2016-May-22 01:33N 26°02' W 079°32'1818.1
2016-May-22 00:33N 25°51' W 079°48'1717.3
2016-May-21 23:33N 25°46' W 080°06'4 3.9
2016-May-21 22:33N 25°47' W 080°10'0 0.0
2016-May-21 21:28N 25°47' W 080°10'0 0.0
2016-May-21 20:33N 25°47' W 080°10'0 0.0
2016-May-21 19:26N 25°47' W 080°10'0 0.0
2016-May-21 18:29N 25°47' W 080°10'0 0.0
2016-May-21 17:26N 25°47' W 080°10'0 0.0
2016-May-21 16:29N 25°47' W 080°10'0 0.0
2016-May-21 15:29N 25°47' W 080°10'0 0.0
2016-May-21 14:32N 25°47' W 080°10'0 0.0
2016-May-21 13:17N 25°47' W 080°10'0 0.0
2016-May-21 12:32N 25°47' W 080°10'0 0.0
2016-May-21 11:29N 25°47' W 080°10'1 0.3
2016-May-21 09:34N 25°47' W 080°11'8 7.9
2016-May-21 08:33N 25°47' W 080°02'1515.3
2016-May-21 07:33N 25°54' W 079°47'1919.1
2016-May-21 06:33N 26°03' W 079°28'2420.3
2016-May-21 05:22N 26°11' W 079°03'1721.6
2016-May-21 04:34N 26°06' W 078°44'2520.3
2016-May-21 03:19N 25°59' W 078°17'3719.8
2016-May-21 01:27N 25°47' W 077°39'14 1.1
2016-May-20 13:18N 25°34' W 077°33'710.0
2016-May-20 12:33N 25°41' W 077°36'9311.6
2016-May-20 04:32N 26°03' W 079°16'2019.5
2016-May-20 03:30N 25°44' W 079°24'1919.8
2016-May-20 02:33N 25°26' W 079°31'2019.8
2016-May-20 01:32N 25°07' W 079°38'2519.7
2016-May-20 00:14N 24°43' W 079°47'46119.2
2016-May-19 00:17N 20°42' W 086°52'  
Track history (hours):
 
Tides and Currents Weather Stations Pressure Air Temp Water Temp Dewpoint Dewpoint Depression Visibility Wind Speed Wind Dir Waves Ship Positions

MSC Divina

Last reported at 2016-May-29 00:17 UTC. Time now 2016-May-30 18:22 UTC.
Position N 25°39' W 080°00'.

Length 333 m; draft 8.6 m.

Type: Passenger vessel. MMSI: 373178000.

Date/timePositionNaut miles runAvg speedWind from/ knotsBaromVisibWave heightAir tempDewpointWater temp
2016-May-29 00:17N 25°39' W 080°00'913.1
2016-May-28 23:34N 25°46' W 080°08'3 2.5
2016-May-28 22:27N 25°47' W 080°10'0 0.0
2016-May-28 21:33N 25°47' W 080°10'0 0.0
2016-May-28 20:23N 25°47' W 080°10'0 0.0
2016-May-28 19:23N 25°47' W 080°10'0 0.0
2016-May-28 18:28N 25°47' W 080°10'0 0.0
2016-May-28 17:31N 25°47' W 080°10'0 0.0
2016-May-28 16:23N 25°47' W 080°10'0 0.0
2016-May-28 15:23N 25°47' W 080°10'0 0.0
2016-May-28 14:31N 25°47' W 080°10'0 0.0
2016-May-28 13:30N 25°47' W 080°10'0 0.0
2016-May-28 12:26N 25°47' W 080°10'0 0.0
2016-May-28 11:26N 25°47' W 080°10'0 0.0
2016-May-28 10:22N 25°47' W 080°10'0 0.5
2016-May-28 09:32N 25°47' W 080°11'7 7.2
2016-May-28 08:33N 25°46' W 080°03'1515.3
2016-May-28 07:33N 25°54' W 079°49'1716.6
2016-May-28 06:33N 26°03' W 079°33'1717.0
2016-May-28 05:34N 26°12' W 079°17'86118.3
2016-May-26 06:29N 18°32' W 066°10'5 5.1
2016-May-26 05:29N 18°28' W 066°07'0 0.0
2016-May-26 04:33N 18°28' W 066°07'0 0.0
2016-May-26 03:31N 18°28' W 066°07'0 0.0
2016-May-26 02:32N 18°28' W 066°07'0 0.0
2016-May-26 01:26N 18°28' W 066°07'0 0.0
2016-May-26 00:26N 18°28' W 066°07'0 0.0
2016-May-25 23:14N 18°28' W 066°07'0 0.0
2016-May-25 21:08N 18°28' W 066°07'0 0.0
2016-May-25 20:23N 18°28' W 066°07'0 0.0
2016-May-25 19:32N 18°28' W 066°07'0 0.0
2016-May-25 18:10N 18°28' W 066°07'0 0.0
2016-May-25 17:25N 18°28' W 066°07'0 0.0
2016-May-25 16:25N 18°28' W 066°07'0 0.0
2016-May-25 15:28N 18°28' W 066°07'0 0.0
2016-May-25 14:28N 18°28' W 066°07'0 0.0
2016-May-25 13:30N 18°28' W 066°07'0 0.0
2016-May-25 12:34N 18°28' W 066°07'7 6.8
2016-May-25 11:34N 18°34' W 066°03'6516.0
2016-May-25 07:29N 18°12' W 064°58'8817.7
2016-May-25 02:31N 18°02' W 063°26'1718.0
2016-May-25 01:33N 18°01' W 063°08'5 4.3
2016-May-25 00:24N 18°01' W 063°03'0 0.0
2016-May-24 23:21N 18°01' W 063°03'0 0.0
2016-May-24 21:22N 18°01' W 063°03'0 0.0
2016-May-24 19:33N 18°01' W 063°03'0 0.0
2016-May-24 18:23N 18°01' W 063°03'0 0.0
2016-May-24 17:23N 18°01' W 063°03'2 2.1
2016-May-24 16:28N 18°00' W 063°05'1717.2
2016-May-24 15:30N 18°08' W 063°21'  
2016-May-22 05:27N 26°02' W 078°26'1617.7
2016-May-22 04:33N 26°06' W 078°43'1818.2
2016-May-22 03:33N 26°12' W 079°02'1818.3
2016-May-22 02:33N 26°17' W 079°22'1817.5
2016-May-22 01:33N 26°02' W 079°32'1818.1
2016-May-22 00:33N 25°51' W 079°48'1717.3
2016-May-21 23:33N 25°46' W 080°06'4 3.9
2016-May-21 22:33N 25°47' W 080°10'0 0.0
2016-May-21 21:28N 25°47' W 080°10'0 0.0
2016-May-21 20:33N 25°47' W 080°10'0 0.0
2016-May-21 19:26N 25°47' W 080°10'0 0.0
2016-May-21 18:29N 25°47' W 080°10'0 0.0
2016-May-21 17:26N 25°47' W 080°10'0 0.0
2016-May-21 16:29N 25°47' W 080°10'0 0.0
2016-May-21 15:29N 25°47' W 080°10'0 0.0
2016-May-21 14:32N 25°47' W 080°10'0 0.0
2016-May-21 13:17N 25°47' W 080°10'0 0.0
2016-May-21 12:32N 25°47' W 080°10'0 0.0
2016-May-21 11:29N 25°47' W 080°10'1 0.3
2016-May-21 09:34N 25°47' W 080°11'8 7.9
2016-May-21 08:33N 25°47' W 080°02'1515.3
2016-May-21 07:33N 25°54' W 079°47'1919.1
2016-May-21 06:33N 26°03' W 079°28'2420.3
2016-May-21 05:22N 26°11' W 079°03'1721.6
2016-May-21 04:34N 26°06' W 078°44'2520.3
2016-May-21 03:19N 25°59' W 078°17'3719.8
2016-May-21 01:27N 25°47' W 077°39'14 1.1
2016-May-20 13:18N 25°34' W 077°33'710.0
2016-May-20 12:33N 25°41' W 077°36'9311.6
2016-May-20 04:32N 26°03' W 079°16'2019.5
2016-May-20 03:30N 25°44' W 079°24'1919.8
2016-May-20 02:33N 25°26' W 079°31'2019.8
2016-May-20 01:32N 25°07' W 079°38'2519.7
2016-May-20 00:14N 24°43' W 079°47'46119.2
2016-May-19 00:17N 20°42' W 086°52'  

Dump ship's entire track history